createdAt,value
2019-05-22T00:00:47.854Z,8.40
2019-05-22T00:03:19.260Z,7.40
2019-05-22T00:05:47.498Z,10.57
2019-05-22T00:08:14.750Z,7.87
2019-05-22T00:10:43.710Z,10.30
2019-05-22T00:13:13.504Z,9.03
2019-05-22T00:15:40.459Z,8.93
2019-05-22T00:18:10.111Z,8.03
2019-05-22T00:20:39.017Z,10.17
2019-05-22T00:23:11.618Z,8.10
2019-05-22T00:25:40.429Z,10.00
2019-05-22T00:28:07.586Z,8.73
2019-05-22T00:30:38.507Z,9.63
2019-05-22T00:33:07.601Z,10.10
2019-05-22T00:35:36.478Z,10.30
2019-05-22T00:38:05.244Z,8.77
2019-05-22T00:40:32.449Z,8.93
2019-05-22T00:43:04.142Z,9.40
2019-05-22T00:45:30.735Z,10.40
2019-05-22T00:47:57.608Z,9.20
2019-05-22T00:50:28.213Z,8.30
2019-05-22T00:53:09.608Z,8.63
2019-05-22T00:55:49.240Z,11.43
2019-05-22T00:58:35.734Z,9.37
2019-05-22T01:01:10.063Z,8.90
2019-05-22T01:03:38.248Z,10.17
2019-05-22T01:06:05.712Z,10.73
2019-05-22T01:08:34.268Z,10.43
2019-05-22T01:11:02.742Z,9.77
2019-05-22T01:13:30.045Z,9.00
2019-05-22T01:15:58.078Z,10.93
2019-05-22T01:18:25.425Z,10.33
2019-05-22T01:20:53.411Z,10.90
2019-05-22T01:23:20.871Z,11.03
2019-05-22T01:25:48.105Z,10.60
2019-05-22T01:28:15.924Z,11.70
2019-05-22T01:30:53.646Z,9.77
2019-05-22T01:33:23.114Z,10.13
2019-05-22T01:36:19.334Z,10.73
2019-05-22T01:38:53.585Z,10.83
2019-05-22T01:41:25.731Z,11.80
2019-05-22T01:43:55.178Z,10.93
2019-05-22T01:46:25.341Z,12.73
2019-05-22T01:48:53.356Z,13.57
2019-05-22T01:51:20.578Z,11.30
2019-05-22T01:53:49.372Z,11.93
2019-05-22T01:56:19.918Z,15.07
2019-05-22T01:58:49.403Z,10.30
2019-05-22T02:01:19.508Z,12.50
2019-05-22T02:03:47.840Z,11.07
2019-05-22T02:06:16.486Z,11.87
2019-05-22T02:08:45.092Z,11.30
2019-05-22T02:11:12.562Z,11.47
2019-05-22T02:13:42.162Z,12.70
2019-05-22T02:16:11.465Z,12.13
2019-05-22T02:18:38.916Z,13.63
2019-05-22T02:21:06.422Z,11.20
2019-05-22T02:23:35.341Z,10.90
2019-05-22T02:26:02.686Z,12.43
2019-05-22T02:28:30.572Z,11.30
2019-05-22T02:30:57.841Z,11.80
2019-05-22T02:33:24.912Z,11.77
2019-05-22T02:35:52.090Z,10.87
2019-05-22T02:38:21.247Z,12.93
2019-05-22T02:40:50.051Z,12.63
2019-05-22T02:43:18.816Z,10.13
2019-05-22T02:45:46.096Z,10.53
2019-05-22T02:48:15.172Z,11.87
2019-05-22T02:50:42.171Z,11.90
2019-05-22T02:53:10.243Z,12.90
2019-05-22T02:55:37.799Z,11.57
2019-05-22T02:58:05.546Z,12.03
2019-05-22T03:00:34.739Z,8.83
2019-05-22T03:03:03.006Z,11.80
2019-05-22T03:05:30.873Z,12.73
2019-05-22T03:07:58.365Z,11.43
2019-05-22T03:10:26.398Z,12.13
2019-05-22T03:12:53.373Z,10.70
2019-05-22T03:15:22.094Z,12.10
2019-05-22T03:17:49.177Z,11.03
2019-05-22T03:20:18.425Z,13.00
2019-05-22T03:22:46.199Z,11.17
2019-05-22T03:25:15.441Z,11.60
2019-05-22T03:27:42.866Z,11.13
2019-05-22T03:30:12.582Z,13.03
2019-05-22T03:32:43.689Z,10.80
2019-05-22T03:35:10.220Z,10.97
2019-05-22T03:37:39.268Z,10.77
2019-05-22T03:40:07.078Z,11.43
2019-05-22T03:42:36.003Z,11.07
2019-05-22T03:45:03.601Z,12.47
2019-05-22T03:47:30.516Z,10.83
2019-05-22T03:49:57.535Z,14.37
2019-05-22T03:52:25.354Z,11.93
2019-05-22T03:54:53.169Z,12.67
2019-05-22T03:57:21.035Z,11.07
2019-05-22T03:59:48.940Z,10.67
2019-05-22T04:02:15.763Z,9.63
2019-05-22T04:04:43.820Z,11.00
2019-05-22T04:07:15.830Z,9.93
2019-05-22T04:09:44.705Z,11.23
2019-05-22T04:12:14.994Z,13.00
2019-05-22T04:14:42.815Z,13.20
2019-05-22T04:17:12.486Z,12.87
2019-05-22T04:19:49.565Z,10.27
2019-05-22T04:22:09.810Z,11.43
2019-05-22T04:24:37.472Z,11.60
2019-05-22T04:27:04.668Z,12.67
2019-05-22T04:29:31.652Z,12.77
2019-05-22T04:32:06.298Z,15.20
2019-05-22T04:34:33.328Z,13.37
2019-05-22T04:37:01.938Z,12.57
2019-05-22T04:39:29.457Z,10.13
2019-05-22T04:41:58.395Z,12.60
2019-05-22T04:44:26.397Z,12.43
2019-05-22T04:46:55.016Z,10.90
2019-05-22T04:49:21.939Z,16.47
2019-05-22T04:51:49.132Z,14.67
2019-05-22T04:54:16.250Z,13.73
2019-05-22T04:56:43.552Z,15.97
2019-05-22T04:59:11.257Z,13.47
2019-05-22T05:01:38.279Z,12.90
2019-05-22T05:04:06.732Z,14.50
2019-05-22T05:06:36.030Z,14.47
2019-05-22T05:09:05.129Z,12.93
2019-05-22T05:11:32.357Z,16.37
2019-05-22T05:14:02.012Z,14.97
2019-05-22T05:16:29.333Z,13.60
2019-05-22T05:18:57.057Z,15.97
2019-05-22T05:24:13.920Z,16.93
2019-05-22T05:26:41.623Z,13.27
2019-05-22T05:29:09.378Z,13.63
2019-05-22T05:31:36.560Z,13.97
2019-05-22T05:34:03.575Z,17.50
2019-05-22T05:36:31.017Z,12.87
2019-05-22T05:38:58.529Z,14.93
2019-05-22T05:41:26.303Z,11.83
2019-05-22T05:43:53.670Z,13.90
2019-05-22T05:46:22.793Z,12.60
2019-05-22T05:48:50.324Z,17.63
2019-05-22T05:54:12.027Z,15.40
2019-05-22T05:56:40.533Z,16.27
2019-05-22T05:59:07.879Z,14.63
2019-05-22T06:01:38.562Z,14.53
2019-05-22T06:04:05.865Z,17.50
2019-05-22T06:06:33.293Z,15.37
2019-05-22T06:09:00.615Z,18.07
2019-05-22T06:11:33.154Z,13.27
2019-05-22T06:14:01.080Z,14.27
2019-05-22T06:16:31.041Z,17.53
2019-05-22T06:18:58.423Z,14.67
2019-05-22T06:21:25.648Z,16.77
2019-05-22T06:23:54.245Z,19.10
2019-05-22T06:26:22.694Z,15.83
2019-05-22T06:28:49.926Z,16.13
2019-05-22T06:31:18.272Z,18.80
2019-05-22T06:33:45.384Z,16.30
2019-05-22T06:36:18.004Z,15.97
2019-05-22T06:38:46.451Z,17.57
2019-05-22T06:41:14.070Z,18.93
2019-05-22T06:43:42.102Z,21.00
2019-05-22T06:46:11.630Z,20.20
2019-05-22T06:48:39.163Z,20.13
2019-05-22T06:53:55.811Z,17.03
2019-05-22T06:56:23.818Z,19.60
2019-05-22T06:58:50.906Z,20.50
2019-05-22T07:01:17.889Z,16.83
2019-05-22T07:03:44.731Z,21.60
2019-05-22T07:06:12.123Z,21.97
2019-05-22T07:08:39.391Z,20.43
2019-05-22T07:11:07.076Z,19.13
2019-05-22T07:13:35.011Z,20.27
2019-05-22T07:16:03.339Z,18.57
2019-05-22T07:18:31.531Z,17.83
2019-05-22T07:20:59.675Z,20.70
2019-05-22T07:23:31.701Z,21.20
2019-05-22T07:25:59.060Z,19.80
2019-05-22T07:28:26.251Z,23.13
2019-05-22T07:30:53.433Z,23.23
2019-05-22T07:33:21.757Z,22.67
2019-05-22T07:36:07.953Z,21.20
2019-05-22T07:38:19.208Z,21.90
2019-05-22T07:40:50.229Z,26.70
2019-05-22T07:43:17.235Z,28.10
2019-05-22T07:45:44.650Z,22.83
2019-05-22T07:48:12.225Z,25.80
2019-05-22T07:53:30.103Z,21.93
2019-05-22T07:55:58.069Z,22.07
2019-05-22T07:58:25.467Z,26.53
2019-05-22T08:00:55.940Z,22.83
2019-05-22T08:03:25.233Z,22.77
2019-05-22T08:05:52.559Z,23.73
2019-05-22T08:08:23.277Z,21.30
2019-05-22T08:10:50.717Z,22.67
2019-05-22T08:13:17.926Z,18.90
2019-05-22T08:15:47.926Z,21.47
2019-05-22T08:18:14.547Z,18.77
2019-05-22T08:20:41.855Z,21.90
2019-05-22T08:23:09.073Z,22.93
2019-05-22T08:25:36.121Z,25.20
2019-05-22T08:28:03.623Z,22.50
2019-05-22T08:30:30.933Z,20.70
2019-05-22T08:33:00.174Z,22.67
2019-05-22T08:35:27.161Z,18.60
2019-05-22T08:37:54.723Z,18.00
2019-05-22T08:40:21.920Z,21.00
2019-05-22T08:42:50.740Z,25.93
2019-05-22T08:45:18.529Z,30.73
2019-05-22T08:50:37.007Z,24.83
2019-05-22T08:53:04.626Z,23.77
2019-05-22T08:55:31.841Z,22.23
2019-05-22T08:57:59.319Z,22.00
2019-05-22T09:00:27.051Z,22.97
2019-05-22T09:02:54.577Z,21.73
2019-05-22T09:05:22.099Z,20.40
2019-05-22T09:07:49.921Z,19.67
2019-05-22T09:10:16.998Z,19.70
2019-05-22T09:12:44.175Z,20.40
2019-05-22T09:15:15.257Z,17.57
2019-05-22T09:17:42.215Z,17.50
2019-05-22T09:20:10.542Z,15.90
2019-05-22T09:22:41.089Z,16.37
2019-05-22T09:25:09.499Z,18.43
2019-05-22T09:27:39.235Z,15.20
2019-05-22T09:30:07.367Z,16.77
2019-05-22T09:32:34.410Z,14.03
2019-05-22T09:35:01.923Z,17.03
2019-05-22T09:37:29.023Z,16.83
2019-05-22T09:39:56.005Z,16.07
2019-05-22T09:42:22.938Z,15.43
2019-05-22T09:44:49.761Z,13.23
2019-05-22T09:47:16.888Z,14.23
2019-05-22T09:49:44.917Z,14.80
2019-05-22T09:52:11.760Z,13.80
2019-05-22T09:54:40.320Z,13.73
2019-05-22T09:57:08.530Z,12.93
2019-05-22T09:59:35.616Z,15.50
2019-05-22T10:02:02.888Z,12.93
2019-05-22T10:04:30.185Z,14.90
2019-05-22T10:06:59.216Z,14.07
2019-05-22T10:09:26.211Z,14.20
2019-05-22T10:11:53.134Z,16.20
2019-05-22T10:14:20.274Z,13.93
2019-05-22T10:16:47.240Z,12.93
2019-05-22T10:19:14.326Z,14.03
2019-05-22T10:21:41.623Z,13.47
2019-05-22T10:24:08.989Z,14.27
2019-05-22T10:26:36.349Z,14.23
2019-05-22T10:29:03.650Z,12.43
2019-05-22T10:31:30.967Z,14.97
2019-05-22T10:33:57.848Z,13.80
2019-05-22T10:36:25.185Z,13.63
2019-05-22T10:38:52.107Z,14.50
2019-05-22T10:41:19.489Z,11.43
2019-05-22T10:43:46.501Z,13.00
2019-05-22T10:46:13.501Z,11.10
2019-05-22T10:48:40.856Z,11.17
2019-05-22T10:51:07.949Z,11.63
2019-05-22T10:53:35.163Z,12.68
2019-05-22T10:56:02.170Z,14.70
2019-05-22T10:58:29.059Z,13.13
2019-05-22T11:00:56.106Z,13.53
2019-05-22T11:03:24.060Z,12.05
2019-05-22T11:06:05.624Z,14.63
2019-05-22T11:08:20.880Z,13.78
2019-05-22T11:10:48.056Z,11.75
2019-05-22T11:13:15.535Z,11.38
2019-05-22T11:15:43.071Z,9.43
2019-05-22T11:18:10.251Z,9.90
2019-05-22T11:20:37.260Z,10.25
2019-05-22T11:23:05.428Z,9.40
2019-05-22T11:25:32.352Z,12.10
2019-05-22T11:27:59.373Z,10.57
2019-05-22T11:30:26.315Z,13.17
2019-05-22T11:32:54.562Z,10.13
2019-05-22T11:35:21.913Z,8.60
2019-05-22T11:37:49.266Z,8.98
2019-05-22T11:40:16.840Z,10.28
2019-05-22T11:42:43.992Z,10.43
2019-05-22T11:45:13.751Z,7.87
2019-05-22T11:47:40.893Z,8.93
2019-05-22T11:50:08.231Z,8.13
2019-05-22T11:52:36.205Z,7.90
2019-05-22T11:55:05.594Z,7.58
2019-05-22T11:57:33.859Z,8.48
2019-05-22T12:00:01.004Z,6.65
2019-05-22T12:02:28.051Z,7.08
2019-05-22T12:04:55.043Z,8.93
2019-05-22T12:07:22.357Z,5.95
2019-05-22T12:09:49.212Z,6.67
2019-05-22T12:12:16.619Z,6.67
2019-05-22T12:14:43.795Z,6.42
2019-05-22T12:17:11.006Z,6.42
2019-05-22T12:19:38.209Z,7.75
2019-05-22T12:22:05.259Z,4.92
2019-05-22T12:24:36.839Z,6.70
2019-05-22T12:27:00.741Z,5.55
2019-05-22T12:29:28.885Z,4.28
2019-05-22T12:31:56.210Z,5.55
2019-05-22T12:34:26.561Z,4.08
2019-05-22T12:36:53.852Z,4.17
2019-05-22T12:39:21.768Z,3.37
2019-05-22T12:41:49.083Z,3.50
2019-05-22T12:44:16.169Z,3.67
2019-05-22T12:46:43.027Z,3.62
2019-05-22T12:49:10.457Z,3.35
2019-05-22T12:51:37.288Z,3.52
2019-05-22T12:54:04.509Z,3.80
2019-05-22T12:56:31.729Z,2.67
2019-05-22T12:58:58.806Z,3.08
2019-05-22T13:01:26.159Z,3.40
2019-05-22T13:03:54.035Z,2.55
2019-05-22T13:06:21.293Z,2.00
2019-05-22T13:08:48.396Z,2.52
2019-05-22T13:11:16.069Z,2.77
2019-05-22T13:13:43.102Z,2.83
2019-05-22T13:16:10.790Z,2.37
2019-05-22T13:18:37.953Z,1.90
2019-05-22T13:21:05.793Z,2.62
2019-05-22T13:23:46.465Z,2.20
2019-05-22T13:26:13.426Z,1.98
2019-05-22T13:28:40.507Z,3.85
2019-05-22T13:31:08.419Z,2.12
2019-05-22T13:33:37.154Z,3.12
2019-05-22T13:36:04.793Z,2.30
2019-05-22T13:38:31.910Z,2.55
2019-05-22T13:40:59.055Z,2.65
2019-05-22T13:43:26.974Z,2.10
2019-05-22T13:45:54.159Z,2.42
2019-05-22T13:48:21.026Z,3.25
2019-05-22T13:50:47.896Z,2.50
2019-05-22T13:53:15.482Z,2.42
2019-05-22T13:55:43.421Z,2.87
2019-05-22T13:58:11.180Z,2.17
2019-05-22T14:00:38.145Z,3.43
2019-05-22T14:03:05.267Z,2.22
2019-05-22T14:05:33.526Z,2.87
2019-05-22T14:08:00.534Z,2.90
2019-05-22T14:10:28.043Z,1.65
2019-05-22T14:12:55.011Z,2.17
2019-05-22T14:15:22.051Z,2.22
2019-05-22T14:17:49.566Z,2.02
2019-05-22T14:20:16.523Z,2.20
2019-05-22T14:22:43.503Z,2.05
2019-05-22T14:25:10.245Z,2.47
2019-05-22T14:27:41.485Z,1.82
2019-05-22T14:30:06.248Z,2.02
2019-05-22T14:32:33.238Z,2.55
2019-05-22T14:35:00.517Z,1.50
2019-05-22T14:37:27.748Z,2.00
2019-05-22T14:39:54.916Z,2.08
2019-05-22T14:42:22.404Z,2.17
2019-05-22T14:44:49.760Z,2.30
2019-05-22T14:47:17.344Z,2.83
2019-05-22T14:49:44.495Z,1.92
2019-05-22T14:52:12.778Z,1.77
2019-05-22T14:54:39.930Z,1.67
2019-05-22T14:57:07.470Z,1.98
2019-05-22T14:59:34.325Z,1.57
2019-05-22T15:02:01.110Z,1.90
2019-05-22T15:04:29.103Z,1.80
2019-05-22T15:06:55.980Z,1.50
2019-05-22T15:09:23.814Z,2.42
2019-05-22T15:11:51.089Z,1.70
2019-05-22T15:14:18.206Z,1.67
2019-05-22T15:16:45.151Z,1.80
2019-05-22T15:19:11.877Z,2.22
2019-05-22T15:21:38.789Z,1.60
2019-05-22T15:24:06.536Z,2.95
2019-05-22T15:26:33.380Z,3.05
2019-05-22T15:29:00.392Z,1.85
2019-05-22T15:31:27.740Z,1.67
2019-05-22T15:33:55.016Z,1.60
2019-05-22T15:36:22.292Z,2.00
2019-05-22T15:38:50.135Z,1.98
2019-05-22T15:41:17.817Z,1.92
2019-05-22T15:43:51.474Z,1.65
2019-05-22T15:46:14.996Z,2.12
2019-05-22T15:48:43.478Z,2.50
2019-05-22T15:51:10.207Z,3.12
2019-05-22T15:53:36.958Z,1.77
2019-05-22T15:56:04.009Z,1.95
2019-05-22T15:58:32.219Z,2.47
2019-05-22T16:01:00.030Z,1.60
2019-05-22T16:03:27.574Z,1.60
2019-05-22T16:05:54.326Z,1.70
2019-05-22T16:08:21.385Z,1.80
2019-05-22T16:10:49.625Z,1.60
2019-05-22T16:13:17.430Z,1.62
2019-05-22T16:15:44.762Z,1.80
2019-05-22T16:18:15.359Z,1.65
2019-05-22T16:20:43.906Z,1.70
2019-05-22T16:23:10.897Z,1.90
2019-05-22T16:25:39.025Z,1.87
2019-05-22T16:28:06.033Z,1.65
2019-05-22T16:30:33.571Z,2.08
2019-05-22T16:33:00.526Z,1.65
2019-05-22T16:35:27.308Z,1.42
2019-05-22T16:37:54.132Z,2.40
2019-05-22T16:40:21.885Z,1.70
2019-05-22T16:42:48.996Z,1.40
2019-05-22T16:45:15.993Z,1.70
2019-05-22T16:47:42.819Z,1.82
2019-05-22T16:50:10.521Z,1.75
2019-05-22T16:52:38.827Z,1.70
2019-05-22T16:55:05.713Z,1.75
2019-05-22T16:57:34.760Z,2.00
2019-05-22T17:00:05.708Z,1.37
2019-05-22T17:02:32.941Z,3.00
2019-05-22T17:05:02.217Z,1.80
2019-05-22T17:07:29.237Z,1.55
2019-05-22T17:09:56.067Z,2.20
2019-05-22T17:12:25.042Z,1.60
2019-05-22T17:14:51.991Z,1.62
2019-05-22T17:17:19.145Z,2.25
2019-05-22T17:19:46.184Z,1.70
2019-05-22T17:22:14.787Z,1.70
2019-05-22T17:24:42.161Z,2.65
2019-05-22T17:27:09.776Z,2.20
2019-05-22T17:29:37.424Z,1.60
2019-05-22T17:32:04.937Z,2.33
2019-05-22T17:34:32.901Z,1.22
2019-05-22T17:37:02.259Z,1.92
2019-05-22T17:39:31.126Z,1.50
2019-05-22T17:41:58.550Z,1.70
2019-05-22T17:44:25.998Z,2.65
2019-05-22T17:46:53.609Z,2.45
2019-05-22T17:49:21.524Z,1.75
2019-05-22T17:51:48.322Z,1.70
2019-05-22T17:54:15.273Z,2.72
2019-05-22T17:56:44.077Z,1.50
2019-05-22T17:59:11.390Z,1.60
2019-05-22T18:01:39.006Z,1.50
2019-05-22T18:04:05.973Z,2.17
2019-05-22T18:06:32.980Z,1.42
2019-05-22T18:09:01.043Z,2.72
2019-05-22T18:11:28.322Z,1.30
2019-05-22T18:13:55.984Z,1.57
2019-05-22T18:16:23.576Z,1.50
2019-05-22T18:18:51.631Z,1.50
2019-05-22T18:21:20.036Z,1.50
2019-05-22T18:23:47.423Z,2.08
2019-05-22T18:26:16.949Z,1.52
2019-05-22T18:28:43.950Z,1.47
2019-05-22T18:31:10.989Z,1.15
2019-05-22T18:33:38.406Z,1.62
2019-05-22T18:36:05.446Z,1.85
2019-05-22T18:38:32.415Z,1.50
2019-05-22T18:41:01.510Z,1.62
2019-05-22T18:43:28.838Z,1.50
2019-05-22T18:45:57.030Z,1.17
2019-05-22T18:48:24.852Z,1.52
2019-05-22T18:50:53.547Z,1.52
2019-05-22T18:53:23.273Z,1.40
2019-05-22T18:55:50.492Z,1.60
2019-05-22T18:58:17.852Z,1.55
2019-05-22T19:00:46.786Z,1.42
2019-05-22T19:03:14.146Z,1.50
2019-05-22T19:05:41.611Z,2.27
2019-05-22T19:08:08.959Z,2.30
2019-05-22T19:10:35.976Z,1.67
2019-05-22T19:13:03.194Z,1.85
2019-05-22T19:15:30.828Z,1.57
2019-05-22T19:17:58.801Z,2.30
2019-05-22T19:20:25.956Z,2.37
2019-05-22T19:23:00.451Z,1.95
2019-05-22T19:25:23.595Z,2.05
2019-05-22T19:30:44.493Z,1.95
2019-05-22T19:33:14.700Z,2.42
2019-05-22T19:35:40.831Z,3.40
2019-05-22T19:38:08.424Z,2.87
2019-05-22T19:40:37.802Z,1.70
2019-05-22T19:43:05.738Z,1.70
2019-05-22T19:45:32.930Z,3.85
2019-05-22T19:47:59.801Z,1.52
2019-05-22T19:50:28.874Z,1.35
2019-05-22T19:52:57.185Z,1.72
2019-05-22T19:55:24.642Z,1.55
2019-05-22T19:57:51.830Z,1.72
2019-05-22T20:00:19.737Z,3.20
2019-05-22T20:05:38.995Z,1.60
2019-05-22T20:08:06.892Z,1.40
2019-05-22T20:10:34.708Z,1.40
2019-05-22T20:13:02.053Z,1.65
2019-05-22T20:15:29.364Z,1.67
2019-05-22T20:17:56.573Z,1.98
2019-05-22T20:20:24.012Z,1.67
2019-05-22T20:22:52.183Z,1.30
2019-05-22T20:25:48.385Z,1.65
2019-05-22T20:28:19.764Z,1.60
2019-05-22T20:30:47.934Z,1.40
2019-05-22T20:33:15.388Z,2.35
2019-05-22T20:35:42.761Z,1.52
2019-05-22T20:38:09.946Z,3.00
2019-05-22T20:40:37.564Z,1.90
2019-05-22T20:43:05.215Z,1.47
2019-05-22T20:45:33.539Z,1.65
2019-05-22T20:48:03.025Z,1.95
2019-05-22T20:50:30.604Z,1.50
2019-05-22T20:52:57.897Z,1.50
2019-05-22T20:55:25.700Z,2.03
2019-05-22T20:57:54.560Z,1.40
2019-05-22T21:00:25.406Z,3.92
2019-05-22T21:02:53.175Z,1.80
2019-05-22T21:05:20.931Z,2.60
2019-05-22T21:07:48.560Z,2.15
2019-05-22T21:10:16.510Z,1.82
2019-05-22T21:12:44.598Z,1.80
2019-05-22T21:15:12.375Z,2.60
2019-05-22T21:17:40.073Z,1.50
2019-05-22T21:20:08.395Z,1.80
2019-05-22T21:22:35.580Z,1.70
2019-05-22T21:25:02.552Z,1.77
2019-05-22T21:27:34.816Z,2.50
2019-05-22T21:30:03.500Z,1.73
2019-05-22T21:32:31.548Z,2.40
2019-05-22T21:34:59.546Z,1.93
2019-05-22T21:37:27.699Z,1.83
2019-05-22T21:39:55.348Z,1.87
2019-05-22T21:42:23.351Z,1.60
2019-05-22T21:44:50.458Z,2.43
2019-05-22T21:47:18.312Z,1.30
2019-05-22T21:49:46.636Z,2.43
2019-05-22T21:52:14.002Z,2.10
2019-05-22T21:54:42.184Z,2.10
2019-05-22T21:57:12.645Z,1.90
2019-05-22T21:59:41.082Z,2.37
2019-05-22T22:02:18.918Z,1.93
2019-05-22T22:04:48.978Z,2.20
2019-05-22T22:07:17.214Z,3.33
2019-05-22T22:09:44.183Z,1.60
2019-05-22T22:12:12.724Z,2.12
2019-05-22T22:14:40.370Z,2.67
2019-05-22T22:17:09.790Z,2.90
2019-05-22T22:19:40.001Z,2.20
2019-05-22T22:22:06.913Z,2.23
2019-05-22T22:24:34.599Z,4.40
2019-05-22T22:27:04.371Z,2.50
2019-05-22T22:29:32.045Z,2.30
2019-05-22T22:31:59.834Z,2.30
2019-05-22T22:34:27.187Z,2.80
2019-05-22T22:36:54.380Z,2.10
2019-05-22T22:39:22.986Z,2.30
2019-05-22T22:41:50.389Z,2.50
2019-05-22T22:44:17.623Z,2.30
2019-05-22T22:46:53.858Z,2.60
2019-05-22T22:49:21.278Z,2.70
2019-05-22T22:51:49.975Z,2.90
2019-05-22T22:54:17.607Z,2.03
2019-05-22T22:56:45.393Z,3.27
2019-05-22T22:59:14.946Z,3.13
2019-05-22T23:01:44.103Z,2.57
2019-05-22T23:04:11.854Z,2.67
2019-05-22T23:06:39.586Z,2.50
2019-05-22T23:09:08.460Z,3.73
2019-05-22T23:11:36.235Z,3.97
2019-05-22T23:14:04.102Z,2.90
2019-05-22T23:16:32.483Z,4.40
2019-05-22T23:18:59.800Z,3.47
2019-05-22T23:21:28.223Z,3.23
2019-05-22T23:23:55.544Z,2.93
2019-05-22T23:26:25.651Z,4.57
2019-05-22T23:28:52.530Z,2.77
2019-05-22T23:31:19.337Z,2.70
2019-05-22T23:33:47.504Z,3.03
2019-05-22T23:36:17.684Z,3.30
2019-05-22T23:38:44.904Z,2.97
2019-05-22T23:41:12.741Z,3.77
2019-05-22T23:43:40.098Z,3.20
2019-05-22T23:46:08.321Z,2.70
2019-05-22T23:48:37.882Z,3.23
2019-05-22T23:51:05.881Z,5.63
2019-05-22T23:53:35.440Z,3.50
2019-05-22T23:56:04.090Z,3.53
2019-05-22T23:58:32.345Z,2.60
